EGJJKGCM

Guest
Details From EGJJ - Jersey
To KGCM - Claremore Rgnl
Flight Number -
Tags Generated
Created
Modified
Stats Distance 3,921 nm / 7,261 km
Max Altitude 0 ft / 0 m
Waypoints 8
Social Downloads 2
Likes 0
Share VATSIM

Download

Looking for another format? Having issues loading an existing format? Contact us
Advertisement - Login to hide

Notes

Generated

Route

EGJJ RUBKO PAIRY 11695 COPTU FECFE GARSE KGCM

ID Type Via Altitude Latitude Longitude Leg Dist Tot Dist Heading (true) Name
O EGJJ APT - 0 ft / 0 m 49.20699˚ -2.20693˚ - 0 nm - -
RUBKO FIX - 0 ft / 0 m 52.33333˚ -60.96667˚ 2177 nm 2177 nm 298° / 251° -
PAIRY FIX - 0 ft / 0 m 45.46833˚ -81.02667˚ 888 nm 3066 nm 250° / 235° -
11695 FIX - 0 ft / 0 m 43.66792˚ -84.47095˚ 182 nm 3249 nm 235° / 233° -
COPTU FIX - 0 ft / 0 m 41.33481˚ -88.41656˚ 223 nm 3473 nm 233° / 230° -
FECFE FIX - 0 ft / 0 m 38.72961˚ -92.26164˚ 236 nm 3709 nm 230° / 227° -
GARSE FIX - 0 ft / 0 m 36.43169˚ -95.30125˚ 199 nm 3909 nm 227° / 225° -
O KGCM APT - 0 ft / 0 m 36.29986˚ -95.47960˚ 11 nm 3920 nm 228° / 227° -

Altitude Profile

Advertisement - Login to hide

Weather


0- 5 10 15 20 25 30 35+ Temperature / ° C

Clouds and Precipitation
Forecast for 2017-12-18 06:00 UTC. Updated 2 hours ago

Ground ~20,000 ft ~40,000 ft Winds

EGJJ

Details ICAO EGJJ (JER)
Name Jersey
Region United Kingdom
Timezone Europe/Jersey (UTC+0.0)
Stats Elevation 277 ft / 84 m (AMSL)
Location 49.207964° -2.195294°
Runways 1
Magnetic Variation 0.902° W

METAR

EGJJ 180650Z 03011KT 9999 FEW008 SCT016 BKN028 09/09 Q1026

Decode

TAF

Not found

Departure Runways

ID Width Length Bearing (true) Bearing (mag) Surface Threshold Offset Overrun Length
09 151 ft / 46 m 5,593 ft / 1,705 m 82.73° 83.63° Asphalt 200 ft / 61 m 0 ft / 0 m
27 151 ft / 46 m 5,593 ft / 1,705 m 262.74° 263.64° Asphalt 302 ft / 92 m 0 ft / 0 m

KGCM

Details ICAO KGCM
Name CLAREMORE RGNL
Region United States
Timezone America/Chicago (UTC-6.0)
Stats Elevation 733 ft / 223 m (AMSL)
Location 36.292716° -95.479615°
Runways 1
Magnetic Variation 2.389° E

METAR

KGCM 180655Z AUTO 21005KT 4SM BR OVC004 06/06 A3012 RMK AO2

Decode

TAF

Not found

Destination Runways

ID Width Length Bearing (true) Bearing (mag) Surface Threshold Offset Overrun Length
17 75 ft / 23 m 5,212 ft / 1,589 m 180.12° 177.73° Asphalt 0 ft / 0 m 0 ft / 0 m
35 75 ft / 23 m 5,212 ft / 1,589 m 0.12° 357.73° Asphalt 250 ft / 76 m 0 ft / 0 m